Aviation Digital Data Service (ADDS)

Output produced by METARs form (0311 UTC 17 January 2018)
found at http://www.aviationweather.gov/adds/metars/
 
KJVW 170255Z AUTO 35008G16KT 10SM M08/M14 A3066 RMK AO2
KJVW 170235Z AUTO 34008G14KT 320V040 9SM CLR M08/M14 A3066 RMK AO2
KJVW 170215Z AUTO 34012G19KT 300V010 10SM M07/M14 A3065 RMK AO2
KJVW 170155Z AUTO 33009G16KT 10SM M07/M14 A3064 RMK AO2
KJVW 170135Z AUTO 34008G16KT 10SM M07/M13 A3064 RMK AO2
KJVW 170115Z AUTO 33009G17KT 290V010 10SM M07/M13 A3064 RMK AO2
KJVW 170055Z AUTO 34007G14KT 10SM M07/M12 A3064 RMK AO2
KJVW 170035Z AUTO 33010G16KT 10SM M07/M13 A3063 RMK AO2
KJVW 170015Z AUTO 33007G16KT 10SM M07/M13 A3062 RMK AO2
KJVW 162355Z AUTO 35010G15KT 10SM M06/M13 A3061 RMK AO2
KJVW 162335Z AUTO 34006G11KT 10SM M06/M12 A3060 RMK AO2
KJVW 162315Z AUTO 36010G15KT 330V040 9SM M06/M11 A3060 RMK AO2
KJVW 162255Z AUTO 33010G19KT 9SM CLR M06/M12 A3060 RMK AO2
KJVW 162235Z AUTO 35008G15KT 9SM M06/M11 A3060 RMK AO2
KJVW 162215Z AUTO 34009G14KT 300V010 9SM M06/M11 A3059 RMK AO2
KJVW 162155Z AUTO VRB04G13KT 8SM M06/M11 A3059 RMK AO2
KJVW 162135Z AUTO 35010KT 330V030 9SM M06/M10 A3058 RMK AO2
KJVW 162115Z AUTO 36004G11KT 8SM M06/M10 A3059 RMK AO2
KJVW 162055Z AUTO 35009G16KT 9SM FEW017 M06/M10 A3059 RMK AO2
KJVW 162035Z AUTO 35007G17KT 4SM -DZ M06/M10 A3059 RMK AO2
KJVW 162015Z AUTO 34009G15KT 4SM -RA M06/M09 A3059 RMK AO2
KJVW 161955Z AUTO 33008G15KT 310V020 2 1/2SM -SN M06/M09 A3059 RMK AO2
KJVW 161935Z AUTO 34008G16KT 2SM -SN M06/M08 A3058 RMK AO2
KJVW 161915Z AUTO 33011KT 1 1/4SM -SN M06/M08 A3059 RMK AO2
KJVW 161855Z AUTO 33008G14KT 1SM -SN M05/M07 A3060 RMK AO2
KJVW 161835Z AUTO 33007G13KT 1 1/4SM -SN M05/M08 A3062 RMK AO2
KJVW 161815Z AUTO 33008KT 300V360 2SM -SN M05/M07 A3062 RMK AO2
KJVW 161755Z AUTO 35009G15KT 4SM -DZ M05/M08 A3062 RMK AO2
KJVW 161735Z AUTO 34009KT 3SM -RA M05/M08 A3063 RMK AO2
KJVW 161715Z AUTO 36008G13KT 3SM -SN M04/M07 A3063 RMK AO2
KJVW 161655Z AUTO 33011G16KT 2SM -SN M04/M07 A3064 RMK AO2
KJVW 161635Z AUTO 34009G15KT 310V010 1 1/2SM -SN M04/M06 A3064 RMK AO2
KJVW 161615Z AUTO 34009G16KT 1 1/4SM -SN M04/M06 A3064 RMK AO2
KJVW 161555Z AUTO 32010G17KT 1SM -SN M04/M06 A3064 RMK AO2
KJVW 161535Z AUTO 34009G15KT 310V010 1SM -SN M04/M05 A3062 RMK AO2
KJVW 161515Z AUTO 34008G13KT 310V020 1 1/4SM -SN M03/M05 A3061 RMK AO2
KJVW 161455Z AUTO 35008G15KT 320V020 1 1/4SM -SN M03/M05 A3060 RMK AO2
KJVW 161435Z AUTO 33009G16KT 1 1/2SM -SN SCT002 BKN010 OVC014 M03/M05 A3059 RMK AO2
KJVW 161415Z AUTO 34007KT 1 1/4SM -SN M03/M05 A3059 RMK AO2
KJVW 161355Z AUTO 34009G17KT 3SM -SN M03/M05 A3058 RMK AO2
KJVW 161335Z AUTO 35008G16KT 310V030 4SM -DZ M02/M05 A3057 RMK AO2
KJVW 161315Z AUTO 34013G22KT 9SM -DZ M02/M04 A3057 RMK AO2
KJVW 161255Z AUTO 35012KT 5SM -DZ M02/M04 A3055 RMK AO2
KJVW 161235Z AUTO 34010G17KT 8SM -DZ M01/M04 A3054 RMK AO2
KJVW 161215Z AUTO 34010G15KT 300V360 10SM M01/M04 A3054 RMK AO2
KJVW 161155Z AUTO 33009G14KT 10SM OVC013 M01/M03 A3052 RMK AO2
KJVW 161135Z AUTO 34011G17KT 10SM M01/M03 A3050 RMK AO2
KJVW 161115Z AUTO 32010G15KT 10SM M00/M03 A3049 RMK AO2
KJVW 161055Z AUTO 33013KT 10SM 00/M02 A3049 RMK AO2
KJVW 161035Z AUTO 35010G17KT 310V020 10SM 01/M02 A3047 RMK AO2
KJVW 161015Z AUTO 33010G17KT 9SM 01/M01 A3047 RMK AO2
KJVW 160955Z AUTO 34011G16KT 300V010 9SM 01/M01 A3046 RMK AO2
KJVW 160935Z AUTO 32009G14KT 290V350 9SM 02/M00 A3045 RMK AO2
KJVW 160915Z AUTO VRB06G15KT 9SM 03/00 A3044 RMK AO2
KJVW 160855Z AUTO 34009KT 10SM 03/00 A3043 RMK AO2
KJVW 160835Z AUTO 35008G13KT 330V040 9SM 03/00 A3041 RMK AO2
KJVW 160815Z AUTO VRB06KT 10SM 04/00 A3041 RMK AO2
KJVW 160755Z AUTO VRB06G12KT 10SM 04/00 A3040 RMK AO2
KJVW 160735Z AUTO 36009G15KT 10SM 04/00 A3041 RMK AO2
KJVW 160715Z AUTO 33007KT 10SM 03/M01 A3040 RMK AO2
KJVW 160655Z AUTO 32005KT 10SM SCT050 01/M01 A3038 RMK AO2
KJVW 160635Z AUTO 28003KT 10SM FEW055 SCT065 01/M01 A3036 RMK AO2
KJVW 160615Z AUTO 33004KT 10SM BKN065 00/M01 A3036 RMK AO2
KJVW 160555Z AUTO 00000KT 10SM M00/M01 A3036 RMK AO2
KJVW 160535Z AUTO 00000KT 10SM M01/M01 A3035 RMK AO2
KJVW 160515Z AUTO 00000KT 10SM M01/M01 A3035 RMK AO2
KJVW 160455Z AUTO 00000KT 10SM M01/M01 A3035 RMK AO2
KJVW 160435Z AUTO 00000KT 10SM M00/M01 A3036 RMK AO2
KJVW 160415Z AUTO 00000KT 10SM M00/M01 A3036 RMK AO2
KJVW 160355Z AUTO 12004KT 10SM M01/M02 A3036 RMK AO2
KJVW 160335Z AUTO 00000KT 10SM 00/M00 A3037 RMK AO2
KJVW 160315Z AUTO 00000KT 10SM 00/M01 A3037 RMK AO2
KJVW 160255Z AUTO 00000KT 10SM 00/M01 A3036 RMK AO2
KJVW 160235Z AUTO 00000KT 10SM 01/M01 A3037 RMK AO2
KJVW 160215Z AUTO 00000KT 10SM 02/M01 A3036 RMK AO2
KJVW 160155Z AUTO 00000KT 10SM 02/00 A3036 RMK AO2
KJVW 160135Z AUTO 00000KT 10SM 01/M00 A3036 RMK AO2
KJVW 160115Z AUTO 00000KT 10SM CLR 02/00 A3036 RMK AO2
KJVW 160055Z AUTO 00000KT 10SM CLR 03/M00 A3035 RMK AO2
KJVW 160035Z AUTO 00000KT 10SM CLR 04/M00 A3035 RMK AO2
KJVW 160015Z AUTO 00000KT 10SM CLR 06/M01 A3035 RMK AO2
KJVW 152355Z AUTO 00000KT 10SM CLR 06/00 A3035 RMK AO2
KJVW 152335Z AUTO 00000KT 10SM CLR 08/M01 A3035 RMK AO2
KJVW 152315Z AUTO 00000KT 9SM CLR 11/M05 A3034 RMK AO2
KJVW 152255Z AUTO 00000KT 8SM CLR 13/M05 A3034 RMK AO2
KJVW 152235Z AUTO 00000KT 9SM CLR 13/M05 A3034 RMK AO2
KJVW 152215Z AUTO VRB05KT 9SM CLR 14/M05 A3034 RMK AO2
KJVW 152155Z AUTO 16004KT 9SM CLR 14/M05 A3034 RMK AO2
KJVW 152135Z AUTO 00000KT 8SM CLR 14/M06 A3033 RMK AO2
KJVW 152115Z AUTO 21004KT 9SM CLR 14/M05 A3034 RMK AO2
KJVW 152055Z AUTO 25005KT 9SM CLR 14/M05 A3033 RMK AO2
KJVW 152035Z AUTO 00000KT 9SM CLR 14/M05 A3034 RMK AO2
KJVW 152015Z AUTO 00000KT 9SM CLR 13/M06 A3034 RMK AO2
KJVW 151955Z AUTO 15004KT 9SM CLR 13/M06 A3035 RMK AO2
KJVW 151935Z AUTO 16007KT 9SM CLR 13/M05 A3035 RMK AO2
KJVW 151915Z AUTO 00000KT 9SM CLR 13/M06 A3036 RMK AO2
KJVW 151855Z AUTO 00000KT 9SM CLR 12/M06 A3037 RMK AO2
KJVW 151835Z AUTO 00000KT 9SM CLR 12/M06 A3038 RMK AO2
KJVW 151815Z AUTO VRB05KT 9SM CLR 12/M07 A3040 RMK AO2
KJVW 151755Z AUTO 00000KT 9SM CLR 11/M06 A3041 RMK AO2
KJVW 151735Z AUTO 26006KT 9SM CLR 11/M07 A3042 RMK AO2
KJVW 151715Z AUTO 20006KT 9SM CLR 10/M06 A3043 RMK AO2
KJVW 151655Z AUTO 22007G12KT 9SM CLR 10/M06 A3044 RMK AO2
KJVW 151635Z AUTO 20008KT 9SM 09/M07 A3044 RMK AO2
KJVW 151615Z AUTO 20005KT 9SM 08/M05 A3045 RMK AO2
KJVW 151555Z AUTO VRB04KT 9SM 07/M04 A3045 RMK AO2
KJVW 151535Z AUTO 00000KT 9SM 06/M04 A3044 RMK AO2
KJVW 151515Z AUTO 00000KT 9SM 04/M03 A3044 RMK AO2
KJVW 151455Z AUTO 00000KT 9SM 02/M02 A3044 RMK AO2
KJVW 151435Z AUTO 00000KT 9SM M00/M02 A3044 RMK AO2
KJVW 151415Z AUTO 00000KT 8SM M02/M03 A3043 RMK AO2
KJVW 151355Z AUTO 00000KT 8SM CLR M03/M04 A3044 RMK AO2
KJVW 151335Z AUTO 00000KT 8SM M04/M05 A3044 RMK AO2
KJVW 151315Z AUTO 00000KT 9SM M05/M05 A3044 RMK AO2
KJVW 151255Z AUTO 00000KT 9SM M05/M06 A3043 RMK AO2
KJVW 151235Z AUTO 00000KT 10SM M05/M05 A3042 RMK AO2
KJVW 151215Z AUTO 00000KT 10SM M05/M05 A3042 RMK AO2
KJVW 151155Z AUTO 11003KT 10SM M05/M05 A3041 RMK AO2
KJVW 151135Z AUTO 00000KT 10SM M05/M05 A3042 RMK AO2
KJVW 151115Z AUTO 00000KT 10SM CLR M04/M05 A3042 RMK AO2
KJVW 151055Z AUTO 00000KT 10SM CLR M05/M05 A3042 RMK AO2
KJVW 151035Z AUTO 00000KT 9SM M05/M05 A3042 RMK AO2
KJVW 151015Z AUTO 00000KT 10SM M05/M05 A3043 RMK AO2
KJVW 150955Z AUTO 00000KT 10SM M04/M05 A3042 RMK AO2
KJVW 150935Z AUTO 00000KT 10SM M05/M05 A3043 RMK AO2
KJVW 150915Z AUTO 00000KT 10SM M04/M04 A3043 RMK AO2
KJVW 150855Z AUTO 00000KT 10SM M04/M05 A3043 RMK AO2
KJVW 150835Z AUTO 00000KT 10SM M04/M05 A3042 RMK AO2
KJVW 150815Z AUTO 00000KT 10SM CLR M04/M05 A3042 RMK AO2
KJVW 150755Z AUTO 00000KT 10SM CLR M04/M04 A3042 RMK AO2
KJVW 150735Z AUTO 12003KT 10SM M04/M04 A3042 RMK AO2
KJVW 150715Z AUTO 00000KT 10SM M04/M04 A3043 RMK AO2
KJVW 150655Z AUTO 00000KT 10SM M03/M04 A3043 RMK AO2
KJVW 150635Z AUTO 00000KT 10SM M03/M04 A3044 RMK AO2
KJVW 150615Z AUTO 00000KT 10SM M04/M04 A3044 RMK AO2
KJVW 150555Z AUTO 00000KT 10SM M03/M04 A3045 RMK AO2
KJVW 150535Z AUTO 00000KT 10SM M03/M04 A3045 RMK AO2
KJVW 150515Z AUTO 00000KT 10SM M03/M04 A3045 RMK AO2
KJVW 150455Z AUTO 00000KT 10SM M03/M04 A3046 RMK AO2
KJVW 150435Z AUTO 00000KT 10SM CLR M02/M04 A3045 RMK AO2
KJVW 150415Z AUTO 00000KT 10SM CLR M02/M04 A3046 RMK AO2
KJVW 150355Z AUTO 00000KT 10SM M02/M04 A3046 RMK AO2
KJVW 150335Z AUTO 00000KT 10SM M02/M03 A3046 RMK AO2
KJVW 150315Z AUTO 00000KT 10SM M02/M03 A3046 RMK AO2
KJVW 150255Z AUTO 00000KT 10SM M01/M03 A3046 RMK AO2
KJVW 150235Z AUTO 00000KT 10SM M01/M04 A3045 RMK AO2
KJVW 150215Z AUTO 00000KT 10SM M00/M04 A3045 RMK AO2
KJVW 150155Z AUTO 00000KT 10SM 00/M04 A3045 RMK AO2
KJVW 150135Z AUTO 00000KT 10SM 01/M04 A3045 RMK AO2
KJVW 150115Z AUTO 09003KT 10SM 01/M03 A3045 RMK AO2
KJVW 150055Z AUTO 11003KT 10SM 02/M04 A3046 RMK AO2
KJVW 150035Z AUTO 00000KT 10SM 02/M06 A3047 RMK AO2
KJVW 150015Z AUTO 00000KT 10SM 02/M06 A3047 RMK AO2
KJVW 142355Z AUTO 00000KT 10SM 03/M07 A3048 RMK AO2
KJVW 142335Z AUTO 00000KT 10SM 04/M10 A3049 RMK AO2
KJVW 142315Z AUTO 00000KT 10SM 05/M10 A3049 RMK AO2
KJVW 142255Z AUTO 00000KT 10SM 05/M10 A3050 RMK AO2
KJVW 142235Z AUTO 01004KT 10SM CLR 05/M10 A3049 RMK AO2
KJVW 142215Z AUTO 00000KT 10SM CLR 05/M10 A3050 RMK AO2
KJVW 142155Z AUTO 32005KT 10SM CLR 06/M10 A3050 RMK AO2
KJVW 142135Z AUTO 34003KT 9SM CLR 06/M10 A3050 RMK AO2
KJVW 142115Z AUTO 00000KT 9SM 06/M10 A3051 RMK AO2
KJVW 142055Z AUTO VRB04KT 9SM 06/M11 A3050 RMK AO2
KJVW 142035Z AUTO 35003KT 9SM 06/M11 A3051 RMK AO2
KJVW 142015Z AUTO 29005KT 10SM 05/M10 A3051 RMK AO2
KJVW 141955Z AUTO VRB04KT 9SM 05/M10 A3052 RMK AO2
KJVW 141935Z AUTO 29005KT 10SM 05/M09 A3053 RMK AO2
KJVW 141915Z AUTO VRB03KT 10SM 04/M09 A3053 RMK AO2
KJVW 141855Z AUTO 31004KT 10SM 04/M09 A3055 RMK AO2
KJVW 141835Z AUTO 27006KT 10SM 04/M09 A3056 RMK AO2
KJVW 141815Z AUTO 00000KT 10SM 03/M09 A3056 RMK AO2
KJVW 141755Z AUTO 29005KT 9SM 03/M09 A3059 RMK AO2
KJVW 141735Z AUTO VRB04KT 9SM 03/M08 A3059 RMK AO2
KJVW 141715Z AUTO VRB04KT 9SM 02/M08 A3060 RMK AO2
KJVW 141655Z AUTO 00000KT 9SM 02/M09 A3061 RMK AO2
KJVW 141635Z AUTO 06004KT 10SM 01/M09 A3061 RMK AO2
KJVW 141615Z AUTO 00000KT 10SM 01/M08 A3061 RMK AO2
KJVW 141555Z AUTO 00000KT 9SM M00/M08 A3062 RMK AO2
KJVW 141535Z AUTO 00000KT 9SM M01/M08 A3063 RMK AO2
KJVW 141515Z AUTO 00000KT 9SM M02/M07 A3062 RMK AO2
KJVW 141455Z AUTO VRB03KT 9SM CLR M03/M07 A3061 RMK AO2
KJVW 141435Z AUTO VRB04KT 10SM CLR M04/M08 A3062 RMK AO2
KJVW 141415Z AUTO VRB05KT 10SM M04/M08 A3061 RMK AO2
KJVW 141355Z AUTO 00000KT 10SM M05/M08 A3060 RMK AO2
KJVW 141335Z AUTO 00000KT 9SM M05/M08 A3060 RMK AO2
KJVW 141315Z AUTO 00000KT 10SM M06/M08 A3060 RMK AO2
KJVW 141255Z AUTO 00000KT 10SM M06/M08 A3059 RMK AO2
KJVW 141235Z AUTO 00000KT 10SM M06/M08 A3060 RMK AO2
KJVW 141215Z AUTO 00000KT 10SM CLR M06/M08 A3059 RMK AO2
KJVW 141155Z AUTO 00000KT 10SM CLR M05/M08 A3059 RMK AO2
KJVW 141135Z AUTO 00000KT 10SM M05/M08 A3059 RMK AO2
KJVW 141115Z AUTO VRB03KT 10SM M05/M07 A3059 RMK AO2
KJVW 141055Z AUTO 02004KT 10SM M05/M07 A3058 RMK AO2
KJVW 141035Z AUTO 00000KT 10SM M06/M07 A3059 RMK AO2
KJVW 141015Z AUTO 00000KT 10SM M06/M07 A3058 RMK AO2
KJVW 140955Z AUTO 00000KT 10SM M06/M07 A3059 RMK AO2
KJVW 140935Z AUTO 00000KT 10SM CLR M06/M07 A3059 RMK AO2
KJVW 140915Z AUTO 00000KT 10SM CLR M06/M07 A3059 RMK AO2
KJVW 140855Z AUTO 00000KT 10SM M06/M07 A3059 RMK AO2
KJVW 140835Z AUTO 00000KT 10SM M06/M07 A3058 RMK AO2
KJVW 140815Z AUTO 00000KT 10SM M06/M07 A3058 RMK AO2
KJVW 140755Z AUTO 00000KT 9SM M06/M07 A3059 RMK AO2
KJVW 140735Z AUTO 00000KT 10SM M06/M07 A3059 RMK AO2
KJVW 140715Z AUTO 00000KT 10SM M06/M07 A3057 RMK AO2
KJVW 140655Z AUTO 00000KT 10SM CLR M06/M07 A3058 RMK AO2
KJVW 140635Z AUTO 00000KT 10SM CLR M05/M07 A3059 RMK AO2
KJVW 140615Z AUTO 34003KT 9SM M06/M07 A3059 RMK AO2
KJVW 140555Z AUTO 00000KT 10SM M05/M07 A3059 RMK AO2
KJVW 140535Z AUTO 00000KT 9SM M06/M07 A3060 RMK AO2
KJVW 140515Z AUTO 00000KT 9SM M05/M07 A3060 RMK AO2
KJVW 140455Z AUTO 00000KT 10SM M05/M07 A3060 RMK AO2
KJVW 140435Z AUTO 00000KT 10SM M05/M07 A3060 RMK AO2
KJVW 140415Z AUTO 00000KT 9SM M05/M07 A3061 RMK AO2
KJVW 140355Z AUTO 00000KT 10SM CLR M05/M07 A3062 RMK AO2
KJVW 140335Z AUTO 00000KT 9SM CLR M04/M07 A3062 RMK AO2
KJVW 140315Z AUTO 00000KT 10SM M04/M07 A3061 RMK AO2